sensor_id;sensor_type;location;lat;lon;timestamp;P1;durP1;ratioP1;P2;durP2;ratioP2
16181;SDS011;8197;51.664;7.114;2023-10-31T00:00:04;15.37;;;2.00;;
16181;SDS011;8197;51.664;7.114;2023-10-31T00:05:13;20.30;;;4.33;;
16181;SDS011;8197;51.664;7.114;2023-10-31T00:10:18;15.20;;;2.70;;
16181;SDS011;8197;51.664;7.114;2023-10-31T00:15:23;15.80;;;2.80;;
16181;SDS011;8197;51.664;7.114;2023-10-31T00:20:26;16.03;;;2.00;;
16181;SDS011;8197;51.664;7.114;2023-10-31T00:25:30;15.60;;;2.50;;
16181;SDS011;8197;51.664;7.114;2023-10-31T00:30:34;16.20;;;2.60;;
16181;SDS011;8197;51.664;7.114;2023-10-31T00:35:37;17.40;;;2.40;;
16181;SDS011;8197;51.664;7.114;2023-10-31T00:40:40;15.27;;;2.40;;
16181;SDS011;8197;51.664;7.114;2023-10-31T00:45:45;15.87;;;2.13;;
16181;SDS011;8197;51.664;7.114;2023-10-31T00:50:48;14.70;;;1.90;;
16181;SDS011;8197;51.664;7.114;2023-10-31T00:55:51;14.47;;;1.80;;
16181;SDS011;8197;51.664;7.114;2023-10-31T01:00:55;16.67;;;2.50;;
16181;SDS011;8197;51.664;7.114;2023-10-31T01:05:58;14.97;;;1.57;;
16181;SDS011;8197;51.664;7.114;2023-10-31T01:11:01;14.73;;;1.73;;
16181;SDS011;8197;51.664;7.114;2023-10-31T01:16:06;16.90;;;1.53;;
16181;SDS011;8197;51.664;7.114;2023-10-31T01:21:10;14.40;;;1.70;;
16181;SDS011;8197;51.664;7.114;2023-10-31T01:26:13;14.90;;;1.40;;
16181;SDS011;8197;51.664;7.114;2023-10-31T01:31:17;14.23;;;1.50;;
16181;SDS011;8197;51.664;7.114;2023-10-31T01:36:23;13.47;;;1.13;;
16181;SDS011;8197;51.664;7.114;2023-10-31T01:41:27;14.20;;;1.43;;
16181;SDS011;8197;51.664;7.114;2023-10-31T01:46:31;15.30;;;1.10;;
16181;SDS011;8197;51.664;7.114;2023-10-31T01:51:34;14.17;;;1.30;;
16181;SDS011;8197;51.664;7.114;2023-10-31T01:56:37;14.90;;;1.37;;
16181;SDS011;8197;51.664;7.114;2023-10-31T02:01:42;14.80;;;1.60;;
16181;SDS011;8197;51.664;7.114;2023-10-31T02:06:46;15.43;;;1.87;;
16181;SDS011;8197;51.664;7.114;2023-10-31T02:11:49;15.07;;;1.73;;
16181;SDS011;8197;51.664;7.114;2023-10-31T02:16:53;13.67;;;1.23;;
16181;SDS011;8197;51.664;7.114;2023-10-31T02:21:57;15.37;;;1.53;;
16181;SDS011;8197;51.664;7.114;2023-10-31T02:27:02;16.00;;;1.67;;
16181;SDS011;8197;51.664;7.114;2023-10-31T02:32:05;16.50;;;1.70;;
16181;SDS011;8197;51.664;7.114;2023-10-31T02:37:10;16.10;;;2.57;;
16181;SDS011;8197;51.664;7.114;2023-10-31T02:42:13;16.90;;;2.37;;
16181;SDS011;8197;51.664;7.114;2023-10-31T02:47:16;16.90;;;2.50;;
16181;SDS011;8197;51.664;7.114;2023-10-31T02:52:20;17.20;;;2.67;;
16181;SDS011;8197;51.664;7.114;2023-10-31T02:57:23;17.97;;;4.33;;
16181;SDS011;8197;51.664;7.114;2023-10-31T03:02:26;16.17;;;2.53;;
16181;SDS011;8197;51.664;7.114;2023-10-31T03:07:30;18.73;;;5.47;;
16181;SDS011;8197;51.664;7.114;2023-10-31T03:12:33;18.27;;;3.63;;
16181;SDS011;8197;51.664;7.114;2023-10-31T03:17:36;18.43;;;4.20;;
16181;SDS011;8197;51.664;7.114;2023-10-31T03:22:40;17.47;;;3.27;;
16181;SDS011;8197;51.664;7.114;2023-10-31T03:27:43;18.80;;;4.80;;
16181;SDS011;8197;51.664;7.114;2023-10-31T03:32:47;20.37;;;3.70;;
16181;SDS011;8197;51.664;7.114;2023-10-31T03:37:51;19.60;;;3.90;;
16181;SDS011;8197;51.664;7.114;2023-10-31T03:42:54;15.70;;;2.97;;
16181;SDS011;8197;51.664;7.114;2023-10-31T03:47:57;17.67;;;2.67;;
16181;SDS011;8197;51.664;7.114;2023-10-31T03:53:01;19.20;;;5.67;;
16181;SDS011;8197;51.664;7.114;2023-10-31T03:58:05;18.47;;;4.60;;
16181;SDS011;8197;51.664;7.114;2023-10-31T04:03:08;19.43;;;3.90;;
16181;SDS011;8197;51.664;7.114;2023-10-31T04:08:12;17.10;;;3.63;;
16181;SDS011;8197;51.664;7.114;2023-10-31T04:13:15;18.73;;;4.80;;
16181;SDS011;8197;51.664;7.114;2023-10-31T04:18:18;19.47;;;4.67;;
16181;SDS011;8197;51.664;7.114;2023-10-31T04:23:22;21.10;;;3.80;;
16181;SDS011;8197;51.664;7.114;2023-10-31T04:28:25;21.37;;;5.03;;
16181;SDS011;8197;51.664;7.114;2023-10-31T04:33:28;18.60;;;4.03;;
16181;SDS011;8197;51.664;7.114;2023-10-31T04:38:32;20.43;;;3.47;;
16181;SDS011;8197;51.664;7.114;2023-10-31T04:43:38;18.60;;;4.00;;
16181;SDS011;8197;51.664;7.114;2023-10-31T04:48:43;17.57;;;3.43;;
16181;SDS011;8197;51.664;7.114;2023-10-31T04:53:47;18.70;;;3.77;;
16181;SDS011;8197;51.664;7.114;2023-10-31T04:58:50;16.10;;;3.20;;
16181;SDS011;8197;51.664;7.114;2023-10-31T05:03:53;16.97;;;3.47;;
16181;SDS011;8197;51.664;7.114;2023-10-31T05:09:13;16.97;;;3.37;;
16181;SDS011;8197;51.664;7.114;2023-10-31T05:14:17;18.30;;;3.67;;
16181;SDS011;8197;51.664;7.114;2023-10-31T05:19:20;16.57;;;3.80;;
16181;SDS011;8197;51.664;7.114;2023-10-31T05:24:24;17.33;;;3.50;;
16181;SDS011;8197;51.664;7.114;2023-10-31T05:29:27;18.43;;;3.30;;
16181;SDS011;8197;51.664;7.114;2023-10-31T05:34:32;18.87;;;4.47;;
16181;SDS011;8197;51.664;7.114;2023-10-31T05:39:36;19.90;;;5.80;;
16181;SDS011;8197;51.664;7.114;2023-10-31T05:44:39;21.60;;;5.10;;
16181;SDS011;8197;51.664;7.114;2023-10-31T05:49:42;21.63;;;6.50;;
16181;SDS011;8197;51.664;7.114;2023-10-31T05:54:47;23.80;;;6.53;;
16181;SDS011;8197;51.664;7.114;2023-10-31T05:59:50;21.90;;;5.80;;
16181;SDS011;8197;51.664;7.114;2023-10-31T06:04:52;27.17;;;8.40;;
16181;SDS011;8197;51.664;7.114;2023-10-31T06:09:57;22.40;;;7.13;;
16181;SDS011;8197;51.664;7.114;2023-10-31T06:15:00;28.20;;;8.30;;
16181;SDS011;8197;51.664;7.114;2023-10-31T06:20:05;23.43;;;7.90;;
16181;SDS011;8197;51.664;7.114;2023-10-31T06:25:11;28.63;;;8.27;;
16181;SDS011;8197;51.664;7.114;2023-10-31T06:30:14;19.83;;;6.17;;
16181;SDS011;8197;51.664;7.114;2023-10-31T06:35:28;27.33;;;7.27;;
16181;SDS011;8197;51.664;7.114;2023-10-31T06:40:33;26.90;;;10.03;;
16181;SDS011;8197;51.664;7.114;2023-10-31T06:45:36;27.83;;;9.83;;
16181;SDS011;8197;51.664;7.114;2023-10-31T06:50:39;27.60;;;11.30;;
16181;SDS011;8197;51.664;7.114;2023-10-31T06:55:43;27.30;;;9.20;;
16181;SDS011;8197;51.664;7.114;2023-10-31T07:00:46;25.07;;;10.57;;
16181;SDS011;8197;51.664;7.114;2023-10-31T07:05:49;29.57;;;10.93;;
16181;SDS011;8197;51.664;7.114;2023-10-31T07:10:54;29.73;;;12.90;;
16181;SDS011;8197;51.664;7.114;2023-10-31T07:15:58;44.00;;;11.90;;
16181;SDS011;8197;51.664;7.114;2023-10-31T07:21:01;25.80;;;10.37;;
16181;SDS011;8197;51.664;7.114;2023-10-31T07:26:06;24.63;;;8.73;;
16181;SDS011;8197;51.664;7.114;2023-10-31T07:31:09;26.33;;;9.10;;
16181;SDS011;8197;51.664;7.114;2023-10-31T07:36:12;24.03;;;8.93;;
16181;SDS011;8197;51.664;7.114;2023-10-31T07:41:17;27.40;;;10.00;;
16181;SDS011;8197;51.664;7.114;2023-10-31T07:46:20;26.83;;;10.23;;
16181;SDS011;8197;51.664;7.114;2023-10-31T07:51:24;23.97;;;8.80;;
16181;SDS011;8197;51.664;7.114;2023-10-31T07:56:28;23.30;;;8.23;;
16181;SDS011;8197;51.664;7.114;2023-10-31T08:01:31;28.90;;;12.23;;
16181;SDS011;8197;51.664;7.114;2023-10-31T08:06:34;21.50;;;7.73;;
16181;SDS011;8197;51.664;7.114;2023-10-31T08:11:38;24.60;;;7.07;;
16181;SDS011;8197;51.664;7.114;2023-10-31T08:16:41;25.33;;;7.07;;
16181;SDS011;8197;51.664;7.114;2023-10-31T08:21:44;18.77;;;5.47;;
16181;SDS011;8197;51.664;7.114;2023-10-31T08:26:49;18.50;;;5.80;;
16181;SDS011;8197;51.664;7.114;2023-10-31T08:31:52;19.17;;;5.17;;
16181;SDS011;8197;51.664;7.114;2023-10-31T08:36:55;24.73;;;7.27;;
16181;SDS011;8197;51.664;7.114;2023-10-31T08:42:01;17.17;;;4.67;;
16181;SDS011;8197;51.664;7.114;2023-10-31T08:47:04;18.70;;;5.63;;
16181;SDS011;8197;51.664;7.114;2023-10-31T08:52:07;19.90;;;5.97;;
16181;SDS011;8197;51.664;7.114;2023-10-31T08:57:12;18.80;;;5.17;;
16181;SDS011;8197;51.664;7.114;2023-10-31T09:02:15;18.63;;;4.53;;
16181;SDS011;8197;51.664;7.114;2023-10-31T09:07:18;16.70;;;3.47;;
16181;SDS011;8197;51.664;7.114;2023-10-31T09:12:22;17.47;;;3.90;;
16181;SDS011;8197;51.664;7.114;2023-10-31T09:17:25;19.27;;;4.73;;
16181;SDS011;8197;51.664;7.114;2023-10-31T09:22:28;22.20;;;6.57;;
16181;SDS011;8197;51.664;7.114;2023-10-31T09:27:32;22.37;;;6.20;;
16181;SDS011;8197;51.664;7.114;2023-10-31T09:32:35;18.70;;;5.17;;
16181;SDS011;8197;51.664;7.114;2023-10-31T09:37:39;19.30;;;5.60;;
16181;SDS011;8197;51.664;7.114;2023-10-31T09:42:43;20.90;;;5.30;;
16181;SDS011;8197;51.664;7.114;2023-10-31T09:47:47;25.77;;;4.90;;
16181;SDS011;8197;51.664;7.114;2023-10-31T09:52:50;18.30;;;4.70;;
16181;SDS011;8197;51.664;7.114;2023-10-31T09:57:56;22.57;;;5.87;;
16181;SDS011;8197;51.664;7.114;2023-10-31T10:02:59;17.87;;;4.97;;
16181;SDS011;8197;51.664;7.114;2023-10-31T10:08:03;20.50;;;6.17;;
16181;SDS011;8197;51.664;7.114;2023-10-31T10:13:07;23.30;;;4.73;;
16181;SDS011;8197;51.664;7.114;2023-10-31T10:18:14;19.00;;;4.00;;
16181;SDS011;8197;51.664;7.114;2023-10-31T10:23:27;19.27;;;3.60;;
16181;SDS011;8197;51.664;7.114;2023-10-31T10:28:35;19.60;;;4.20;;
16181;SDS011;8197;51.664;7.114;2023-10-31T10:33:40;22.77;;;5.13;;
16181;SDS011;8197;51.664;7.114;2023-10-31T10:38:43;19.43;;;4.73;;
16181;SDS011;8197;51.664;7.114;2023-10-31T10:43:52;24.23;;;3.67;;
16181;SDS011;8197;51.664;7.114;2023-10-31T10:48:58;16.40;;;3.37;;
16181;SDS011;8197;51.664;7.114;2023-10-31T10:54:09;19.87;;;4.10;;
16181;SDS011;8197;51.664;7.114;2023-10-31T10:59:20;21.50;;;5.20;;
16181;SDS011;8197;51.664;7.114;2023-10-31T11:04:23;21.90;;;4.90;;
16181;SDS011;8197;51.664;7.114;2023-10-31T11:09:28;25.93;;;5.33;;
16181;SDS011;8197;51.664;7.114;2023-10-31T11:14:33;19.77;;;4.80;;
16181;SDS011;8197;51.664;7.114;2023-10-31T11:19:37;21.37;;;4.40;;
16181;SDS011;8197;51.664;7.114;2023-10-31T11:24:41;21.37;;;4.53;;
16181;SDS011;8197;51.664;7.114;2023-10-31T11:29:46;21.83;;;4.40;;
16181;SDS011;8197;51.664;7.114;2023-10-31T11:34:52;26.10;;;8.10;;
16181;SDS011;8197;51.664;7.114;2023-10-31T11:45:26;24.10;;;5.10;;
16181;SDS011;8197;51.664;7.114;2023-10-31T11:50:30;28.30;;;5.73;;
16181;SDS011;8197;51.664;7.114;2023-10-31T11:55:34;24.87;;;6.20;;
16181;SDS011;8197;51.664;7.114;2023-10-31T12:00:40;26.17;;;5.90;;
16181;SDS011;8197;51.664;7.114;2023-10-31T12:05:50;23.17;;;5.23;;
16181;SDS011;8197;51.664;7.114;2023-10-31T12:11:05;22.03;;;4.57;;
16181;SDS011;8197;51.664;7.114;2023-10-31T12:16:10;46.33;;;5.73;;
16181;SDS011;8197;51.664;7.114;2023-10-31T12:21:14;18.70;;;4.13;;
16181;SDS011;8197;51.664;7.114;2023-10-31T12:26:22;28.90;;;3.90;;
16181;SDS011;8197;51.664;7.114;2023-10-31T12:31:27;21.10;;;5.30;;
16181;SDS011;8197;51.664;7.114;2023-10-31T12:36:31;28.60;;;5.27;;
16181;SDS011;8197;51.664;7.114;2023-10-31T12:41:35;19.83;;;2.93;;
16181;SDS011;8197;51.664;7.114;2023-10-31T12:46:40;21.10;;;3.10;;
16181;SDS011;8197;51.664;7.114;2023-10-31T12:51:54;20.00;;;3.30;;
16181;SDS011;8197;51.664;7.114;2023-10-31T12:56:59;25.53;;;2.80;;
16181;SDS011;8197;51.664;7.114;2023-10-31T13:02:04;23.90;;;2.50;;
16181;SDS011;8197;51.664;7.114;2023-10-31T13:07:09;22.40;;;3.73;;
16181;SDS011;8197;51.664;7.114;2023-10-31T13:12:12;22.43;;;3.00;;
16181;SDS011;8197;51.664;7.114;2023-10-31T13:17:16;19.70;;;2.80;;
16181;SDS011;8197;51.664;7.114;2023-10-31T13:22:20;20.57;;;2.47;;
16181;SDS011;8197;51.664;7.114;2023-10-31T13:27:23;21.43;;;2.70;;
16181;SDS011;8197;51.664;7.114;2023-10-31T13:32:28;21.63;;;2.50;;
16181;SDS011;8197;51.664;7.114;2023-10-31T13:37:31;32.30;;;3.37;;
16181;SDS011;8197;51.664;7.114;2023-10-31T13:42:35;25.27;;;2.90;;
16181;SDS011;8197;51.664;7.114;2023-10-31T13:47:39;25.10;;;3.20;;
16181;SDS011;8197;51.664;7.114;2023-10-31T13:52:42;23.23;;;3.10;;
16181;SDS011;8197;51.664;7.114;2023-10-31T13:57:45;20.63;;;2.60;;
16181;SDS011;8197;51.664;7.114;2023-10-31T14:02:50;20.73;;;2.63;;
16181;SDS011;8197;51.664;7.114;2023-10-31T14:07:53;17.83;;;2.47;;
16181;SDS011;8197;51.664;7.114;2023-10-31T14:12:56;18.07;;;2.53;;
16181;SDS011;8197;51.664;7.114;2023-10-31T14:18:00;21.60;;;2.43;;
16181;SDS011;8197;51.664;7.114;2023-10-31T14:23:04;20.10;;;2.53;;
16181;SDS011;8197;51.664;7.114;2023-10-31T14:28:07;21.73;;;3.00;;
16181;SDS011;8197;51.664;7.114;2023-10-31T14:33:11;16.80;;;1.87;;
16181;SDS011;8197;51.664;7.114;2023-10-31T14:38:15;18.83;;;2.90;;
16181;SDS011;8197;51.664;7.114;2023-10-31T14:43:18;23.57;;;2.50;;
16181;SDS011;8197;51.664;7.114;2023-10-31T14:48:22;17.37;;;1.83;;
16181;SDS011;8197;51.664;7.114;2023-10-31T14:53:25;22.07;;;2.10;;
16181;SDS011;8197;51.664;7.114;2023-10-31T14:58:29;18.70;;;2.13;;
16181;SDS011;8197;51.664;7.114;2023-10-31T15:03:33;17.80;;;2.20;;
16181;SDS011;8197;51.664;7.114;2023-10-31T15:08:36;22.30;;;2.10;;
16181;SDS011;8197;51.664;7.114;2023-10-31T15:13:39;21.50;;;2.37;;
16181;SDS011;8197;51.664;7.114;2023-10-31T15:18:43;20.20;;;2.53;;
16181;SDS011;8197;51.664;7.114;2023-10-31T15:23:46;19.07;;;1.83;;
16181;SDS011;8197;51.664;7.114;2023-10-31T15:28:52;17.40;;;2.00;;
16181;SDS011;8197;51.664;7.114;2023-10-31T15:33:57;17.47;;;1.70;;
16181;SDS011;8197;51.664;7.114;2023-10-31T15:39:00;16.50;;;2.07;;
16181;SDS011;8197;51.664;7.114;2023-10-31T15:44:03;17.87;;;1.90;;
16181;SDS011;8197;51.664;7.114;2023-10-31T15:49:08;16.00;;;1.90;;
16181;SDS011;8197;51.664;7.114;2023-10-31T15:54:11;18.90;;;1.73;;
16181;SDS011;8197;51.664;7.114;2023-10-31T15:59:14;17.37;;;1.77;;
16181;SDS011;8197;51.664;7.114;2023-10-31T16:04:19;16.70;;;1.90;;
16181;SDS011;8197;51.664;7.114;2023-10-31T16:09:24;18.27;;;1.97;;
16181;SDS011;8197;51.664;7.114;2023-10-31T16:14:30;15.27;;;1.53;;
16181;SDS011;8197;51.664;7.114;2023-10-31T16:19:35;17.67;;;1.97;;
16181;SDS011;8197;51.664;7.114;2023-10-31T16:24:38;22.60;;;1.60;;
16181;SDS011;8197;51.664;7.114;2023-10-31T16:29:42;17.20;;;1.93;;
16181;SDS011;8197;51.664;7.114;2023-10-31T16:34:46;17.10;;;1.80;;
16181;SDS011;8197;51.664;7.114;2023-10-31T16:39:52;21.10;;;2.50;;
16181;SDS011;8197;51.664;7.114;2023-10-31T16:44:55;15.30;;;1.97;;
16181;SDS011;8197;51.664;7.114;2023-10-31T16:49:59;18.30;;;2.20;;
16181;SDS011;8197;51.664;7.114;2023-10-31T16:55:04;15.70;;;1.90;;
16181;SDS011;8197;51.664;7.114;2023-10-31T17:00:07;16.80;;;1.80;;
16181;SDS011;8197;51.664;7.114;2023-10-31T17:05:12;18.83;;;2.57;;
16181;SDS011;8197;51.664;7.114;2023-10-31T17:10:15;14.83;;;1.90;;
16181;SDS011;8197;51.664;7.114;2023-10-31T17:15:18;16.30;;;2.20;;
16181;SDS011;8197;51.664;7.114;2023-10-31T17:20:23;18.40;;;3.00;;
16181;SDS011;8197;51.664;7.114;2023-10-31T17:25:26;16.90;;;2.07;;
16181;SDS011;8197;51.664;7.114;2023-10-31T17:30:29;16.20;;;2.57;;
16181;SDS011;8197;51.664;7.114;2023-10-31T17:35:33;21.17;;;2.87;;
16181;SDS011;8197;51.664;7.114;2023-10-31T17:40:36;21.40;;;2.50;;
16181;SDS011;8197;51.664;7.114;2023-10-31T17:45:39;19.40;;;3.50;;
16181;SDS011;8197;51.664;7.114;2023-10-31T17:50:43;17.37;;;2.40;;
16181;SDS011;8197;51.664;7.114;2023-10-31T17:55:46;20.20;;;3.43;;
16181;SDS011;8197;51.664;7.114;2023-10-31T18:00:49;17.70;;;2.83;;
16181;SDS011;8197;51.664;7.114;2023-10-31T18:05:54;21.60;;;3.57;;
16181;SDS011;8197;51.664;7.114;2023-10-31T18:10:57;17.40;;;3.10;;
16181;SDS011;8197;51.664;7.114;2023-10-31T18:16:01;16.60;;;2.60;;
16181;SDS011;8197;51.664;7.114;2023-10-31T18:21:05;15.70;;;2.30;;
16181;SDS011;8197;51.664;7.114;2023-10-31T18:26:08;17.10;;;2.13;;
16181;SDS011;8197;51.664;7.114;2023-10-31T18:31:11;16.00;;;2.60;;
16181;SDS011;8197;51.664;7.114;2023-10-31T18:36:16;15.87;;;2.07;;
16181;SDS011;8197;51.664;7.114;2023-10-31T18:41:31;16.80;;;3.27;;
16181;SDS011;8197;51.664;7.114;2023-10-31T18:46:35;25.57;;;2.17;;
16181;SDS011;8197;51.664;7.114;2023-10-31T18:51:39;15.10;;;2.00;;
16181;SDS011;8197;51.664;7.114;2023-10-31T18:56:42;21.30;;;2.63;;
16181;SDS011;8197;51.664;7.114;2023-10-31T19:01:45;18.07;;;3.20;;
16181;SDS011;8197;51.664;7.114;2023-10-31T19:06:51;18.67;;;2.93;;
16181;SDS011;8197;51.664;7.114;2023-10-31T19:11:54;15.80;;;2.73;;
16181;SDS011;8197;51.664;7.114;2023-10-31T19:16:57;18.77;;;2.50;;
16181;SDS011;8197;51.664;7.114;2023-10-31T19:22:01;16.17;;;2.33;;
16181;SDS011;8197;51.664;7.114;2023-10-31T19:27:04;17.80;;;3.30;;
16181;SDS011;8197;51.664;7.114;2023-10-31T19:32:08;21.73;;;3.70;;
16181;SDS011;8197;51.664;7.114;2023-10-31T19:37:13;18.83;;;3.13;;
16181;SDS011;8197;51.664;7.114;2023-10-31T19:42:16;16.73;;;2.73;;
16181;SDS011;8197;51.664;7.114;2023-10-31T19:47:19;24.53;;;6.73;;
16181;SDS011;8197;51.664;7.114;2023-10-31T19:52:23;17.20;;;2.97;;
16181;SDS011;8197;51.664;7.114;2023-10-31T19:57:27;20.77;;;5.30;;
16181;SDS011;8197;51.664;7.114;2023-10-31T20:02:30;20.77;;;5.40;;
16181;SDS011;8197;51.664;7.114;2023-10-31T20:07:34;17.80;;;3.57;;
16181;SDS011;8197;51.664;7.114;2023-10-31T20:12:37;18.87;;;3.10;;
16181;SDS011;8197;51.664;7.114;2023-10-31T20:17:40;18.50;;;3.50;;
16181;SDS011;8197;51.664;7.114;2023-10-31T20:22:45;23.07;;;6.70;;
16181;SDS011;8197;51.664;7.114;2023-10-31T20:27:48;20.37;;;3.03;;
16181;SDS011;8197;51.664;7.114;2023-10-31T20:32:50;18.93;;;4.63;;
16181;SDS011;8197;51.664;7.114;2023-10-31T20:37:55;22.33;;;6.30;;
16181;SDS011;8197;51.664;7.114;2023-10-31T20:42:58;22.03;;;5.20;;
16181;SDS011;8197;51.664;7.114;2023-10-31T20:48:01;21.40;;;4.20;;
16181;SDS011;8197;51.664;7.114;2023-10-31T20:53:05;21.77;;;5.33;;
16181;SDS011;8197;51.664;7.114;2023-10-31T20:58:08;22.67;;;5.23;;
16181;SDS011;8197;51.664;7.114;2023-10-31T21:03:14;19.90;;;4.23;;
16181;SDS011;8197;51.664;7.114;2023-10-31T21:08:18;19.60;;;4.40;;
16181;SDS011;8197;51.664;7.114;2023-10-31T21:13:21;21.20;;;4.30;;
16181;SDS011;8197;51.664;7.114;2023-10-31T21:18:24;26.63;;;6.10;;
16181;SDS011;8197;51.664;7.114;2023-10-31T21:23:28;20.30;;;4.00;;
16181;SDS011;8197;51.664;7.114;2023-10-31T21:28:32;23.73;;;3.60;;
16181;SDS011;8197;51.664;7.114;2023-10-31T21:33:35;23.40;;;4.10;;
16181;SDS011;8197;51.664;7.114;2023-10-31T21:38:39;23.60;;;3.73;;
16181;SDS011;8197;51.664;7.114;2023-10-31T21:43:42;19.00;;;2.57;;
16181;SDS011;8197;51.664;7.114;2023-10-31T21:48:45;19.70;;;3.33;;
16181;SDS011;8197;51.664;7.114;2023-10-31T21:53:49;20.97;;;3.30;;
16181;SDS011;8197;51.664;7.114;2023-10-31T21:58:52;20.57;;;2.70;;
16181;SDS011;8197;51.664;7.114;2023-10-31T22:03:55;21.73;;;4.00;;
16181;SDS011;8197;51.664;7.114;2023-10-31T22:09:00;22.73;;;3.70;;
16181;SDS011;8197;51.664;7.114;2023-10-31T22:14:03;21.70;;;2.77;;
16181;SDS011;8197;51.664;7.114;2023-10-31T22:19:06;26.27;;;3.50;;
16181;SDS011;8197;51.664;7.114;2023-10-31T22:24:11;20.03;;;3.30;;
16181;SDS011;8197;51.664;7.114;2023-10-31T22:29:14;18.73;;;2.60;;
16181;SDS011;8197;51.664;7.114;2023-10-31T22:34:17;22.17;;;3.50;;
16181;SDS011;8197;51.664;7.114;2023-10-31T22:39:22;19.40;;;2.83;;
16181;SDS011;8197;51.664;7.114;2023-10-31T22:44:25;23.13;;;3.50;;
16181;SDS011;8197;51.664;7.114;2023-10-31T22:49:28;19.93;;;2.80;;
16181;SDS011;8197;51.664;7.114;2023-10-31T22:54:32;17.80;;;2.50;;
16181;SDS011;8197;51.664;7.114;2023-10-31T22:59:35;24.23;;;3.50;;
16181;SDS011;8197;51.664;7.114;2023-10-31T23:04:39;21.73;;;3.20;;
16181;SDS011;8197;51.664;7.114;2023-10-31T23:09:44;23.10;;;3.30;;
16181;SDS011;8197;51.664;7.114;2023-10-31T23:14:47;28.60;;;3.53;;
16181;SDS011;8197;51.664;7.114;2023-10-31T23:19:50;27.23;;;3.70;;
16181;SDS011;8197;51.664;7.114;2023-10-31T23:24:58;25.07;;;3.23;;
16181;SDS011;8197;51.664;7.114;2023-10-31T23:30:01;20.00;;;3.13;;
16181;SDS011;8197;51.664;7.114;2023-10-31T23:35:06;18.77;;;2.50;;
16181;SDS011;8197;51.664;7.114;2023-10-31T23:40:13;20.83;;;3.73;;
16181;SDS011;8197;51.664;7.114;2023-10-31T23:45:16;20.00;;;2.83;;
16181;SDS011;8197;51.664;7.114;2023-10-31T23:50:20;18.37;;;2.67;;
16181;SDS011;8197;51.664;7.114;2023-10-31T23:55:25;19.90;;;2.63;;
